Time;durP1;ratioP1;P1;durP2;ratioP2;P2;SDS_P1;SDS_P2;PMS_P1;PMS_P2;Temp;Humidity;BMP_temperature;BMP_pressure;BME280_temperature;BME280_humidity;BME280_pressure;Samples;Min_cycle;Max_cycle;Signal;HPM_P1;HPM_P2
2023/07/05 00:00:20;;;;;;;10.30;6.70;;;15.10;99.90;;;;;;4988689;28;20242;-49
2023/07/05 00:02:45;;;;;;;9.23;5.57;;;15.10;99.90;;;;;;5074480;28;20388;-48
2023/07/05 00:05:12;;;;;;;14.45;6.53;;;15.10;99.90;;;;;;5091295;28;20024;-52
2023/07/05 00:07:37;;;;;;;14.88;6.95;;;15.10;99.90;;;;;;5004335;28;20030;-50
2023/07/05 00:10:03;;;;;;;11.18;6.82;;;15.10;99.90;;;;;;4988078;28;20031;-51
2023/07/05 00:12:29;;;;;;;9.20;6.13;;;15.20;99.90;;;;;;4988366;28;20029;-50
2023/07/05 00:14:54;;;;;;;8.48;6.32;;;15.20;99.90;;;;;;4971020;28;20026;-49
2023/07/05 00:17:20;;;;;;;11.02;6.15;;;15.20;99.90;;;;;;5049599;28;20032;-50
2023/07/05 00:19:53;;;;;;;11.30;5.80;;;15.20;99.90;;;;;;5083051;28;20040;-50
2023/07/05 00:22:19;;;;;;;12.98;6.05;;;15.20;99.90;;;;;;5072993;28;20477;-48
2023/07/05 00:24:45;;;;;;;14.40;6.25;;;15.30;99.90;;;;;;5091346;28;20444;-50
2023/07/05 00:27:12;;;;;;;11.85;6.13;;;15.30;99.90;;;;;;5078881;28;20052;-48
2023/07/05 00:29:38;;;;;;;8.90;5.47;;;15.30;99.90;;;;;;4970493;28;20041;-49
2023/07/05 00:32:04;;;;;;;13.02;6.05;;;15.40;99.90;;;;;;4988151;28;20026;-49
2023/07/05 00:34:29;;;;;;;15.65;5.60;;;15.40;99.90;;;;;;4988219;28;20026;-49
2023/07/05 00:36:55;;;;;;;18.48;6.38;;;15.40;99.90;;;;;;4988100;28;20109;-50
2023/07/05 00:39:20;;;;;;;9.65;4.78;;;15.50;99.90;;;;;;4987902;28;20044;-49
2023/07/05 00:41:46;;;;;;;11.88;6.03;;;15.50;99.90;;;;;;4970547;28;20399;-50
2023/07/05 00:44:13;;;;;;;11.98;5.55;;;15.50;99.90;;;;;;4988363;28;20030;-51
2023/07/05 00:46:44;;;;;;;9.80;4.80;;;15.60;99.90;;;;;;5028225;28;20074;-49
2023/07/05 00:49:14;;;;;;;11.32;5.82;;;15.70;99.90;;;;;;5030368;28;20291;-50
2023/07/05 00:51:50;;;;;;;13.07;5.43;;;15.70;99.90;;;;;;4952665;28;1034816;-47
2023/07/05 00:54:18;;;;;;;11.95;6.07;;;15.70;99.90;;;;;;4989663;28;20033;-47
2023/07/05 00:56:50;;;;;;;12.07;5.65;;;15.70;99.90;;;;;;4988714;28;20031;-51
2023/07/05 00:59:18;;;;;;;12.95;5.60;;;15.80;99.90;;;;;;4988512;28;20535;-48
2023/07/05 01:01:44;;;;;;;16.35;5.75;;;15.90;99.90;;;;;;4988381;28;20395;-49
2023/07/05 01:04:10;;;;;;;7.38;5.03;;;15.90;99.90;;;;;;4989151;28;20021;-48
2023/07/05 01:06:36;;;;;;;11.18;5.72;;;15.90;99.90;;;;;;4988528;28;20556;-48
2023/07/05 01:09:04;;;;;;;14.00;6.15;;;15.90;99.90;;;;;;4988141;28;20030;-50
2023/07/05 01:11:51;;;;;;;9.75;5.22;;;15.90;99.90;;;;;;4988531;28;20613;-48
2023/07/05 01:14:24;;;;;;;10.43;5.25;;;16.00;99.90;;;;;;4988773;28;20026;-50
2023/07/05 01:17:02;;;;;;;14.93;5.80;;;16.00;99.90;;;;;;5034996;28;20080;-48
2023/07/05 01:20:09;;;;;;;9.23;5.80;;;16.00;99.90;;;;;;5073009;28;20062;-50
2023/07/05 01:23:12;;;;;;;13.27;5.35;;;16.00;99.90;;;;;;4889212;29;20115;-49
2023/07/05 01:25:46;;;;;;;11.15;5.78;;;16.00;99.90;;;;;;4988541;28;20232;-49
2023/07/05 01:28:42;;;;;;;17.65;5.75;;;16.10;99.90;;;;;;4987735;28;20031;-50
2023/07/05 01:31:21;;;;;;;10.43;5.75;;;16.00;99.90;;;;;;4988177;28;20535;-49
2023/07/05 01:34:04;;;;;;;9.45;5.13;;;16.00;99.90;;;;;;4988254;28;20031;-48
2023/07/05 01:36:31;;;;;;;9.27;5.65;;;16.00;99.90;;;;;;4988499;28;20023;-48
2023/07/05 01:38:57;;;;;;;11.27;5.82;;;16.10;99.90;;;;;;4970946;28;20162;-48
2023/07/05 01:41:22;;;;;;;12.48;5.80;;;16.10;99.90;;;;;;4988226;28;20030;-51
2023/07/05 01:43:49;;;;;;;11.02;5.78;;;16.10;99.90;;;;;;4988311;28;20061;-51
2023/07/05 01:46:23;;;;;;;12.02;6.13;;;16.10;99.90;;;;;;5009638;28;20336;-51
2023/07/05 01:49:07;;;;;;;9.77;5.65;;;16.10;99.90;;;;;;5089695;28;20091;-49
2023/07/05 01:52:04;;;;;;;11.95;5.63;;;16.10;99.90;;;;;;5042024;28;20042;-51
2023/07/05 01:54:37;;;;;;;15.52;6.18;;;16.10;99.90;;;;;;4970521;28;20503;-51
2023/07/05 01:57:13;;;;;;;13.13;6.40;;;16.10;99.90;;;;;;4987923;28;20048;-50
2023/07/05 01:59:57;;;;;;;13.50;6.25;;;16.10;99.90;;;;;;4970516;28;20034;-49
2023/07/05 02:02:28;;;;;;;12.25;6.30;;;16.10;99.90;;;;;;4991919;28;20028;-51
2023/07/05 02:04:55;;;;;;;12.85;6.13;;;16.10;99.90;;;;;;5072349;28;20263;-51
2023/07/05 02:07:29;;;;;;;9.73;6.28;;;16.10;99.90;;;;;;5071804;28;20024;-49
2023/07/05 02:09:57;;;;;;;9.68;5.75;;;16.20;99.90;;;;;;5090083;28;20028;-51
2023/07/05 02:12:24;;;;;;;9.77;6.20;;;16.20;99.90;;;;;;5043240;28;20084;-50
2023/07/05 02:14:50;;;;;;;10.32;6.35;;;16.20;99.90;;;;;;4987612;28;20037;-51
2023/07/05 02:17:17;;;;;;;9.05;6.47;;;16.20;99.90;;;;;;5050282;28;20024;-48
2023/07/05 02:19:42;;;;;;;17.05;6.70;;;16.20;99.90;;;;;;5089667;28;20070;-51
2023/07/05 02:22:08;;;;;;;10.38;6.18;;;16.30;99.90;;;;;;5071934;28;20061;-50
2023/07/05 02:24:33;;;;;;;17.00;7.45;;;16.30;99.90;;;;;;4987873;28;20468;-47
2023/07/05 02:26:59;;;;;;;12.80;6.75;;;16.40;99.90;;;;;;4987749;28;20045;-48
2023/07/05 02:29:25;;;;;;;10.02;7.05;;;16.50;99.90;;;;;;4987505;28;20579;-48
2023/07/05 02:31:51;;;;;;;9.45;6.85;;;16.50;99.90;;;;;;4987410;28;20058;-48
2023/07/05 02:34:16;;;;;;;19.88;6.97;;;16.50;99.90;;;;;;4987530;28;20283;-49
2023/07/05 02:36:42;;;;;;;15.48;6.95;;;16.60;99.90;;;;;;4987426;28;20072;-50
2023/07/05 02:39:07;;;;;;;16.55;7.35;;;16.60;99.90;;;;;;4987687;28;20061;-51
2023/07/05 02:41:33;;;;;;;11.55;6.68;;;16.60;99.90;;;;;;4987666;28;20038;-49
2023/07/05 02:43:59;;;;;;;12.75;6.75;;;16.70;99.90;;;;;;4987197;28;20413;-51
2023/07/05 02:46:26;;;;;;;16.20;7.15;;;16.80;99.90;;;;;;4995715;28;20021;-49
2023/07/05 02:48:55;;;;;;;14.75;7.25;;;16.70;99.90;;;;;;5088986;28;20154;-48
2023/07/05 02:51:21;;;;;;;14.70;7.00;;;16.80;99.90;;;;;;5071249;28;20400;-49
2023/07/05 02:53:46;;;;;;;13.10;7.45;;;16.70;99.90;;;;;;4992258;28;20037;-48
2023/07/05 02:56:13;;;;;;;14.75;7.47;;;16.80;99.90;;;;;;4970241;28;20102;-52
2023/07/05 02:58:39;;;;;;;10.70;7.05;;;16.80;99.90;;;;;;4974817;28;20161;-49
2023/07/05 03:01:05;;;;;;;11.35;6.72;;;16.80;99.90;;;;;;4986635;28;20105;-49
2023/07/05 03:03:31;;;;;;;14.55;7.35;;;16.80;99.90;;;;;;4976732;28;20018;-49
2023/07/05 03:06:01;;;;;;;11.50;6.97;;;16.80;99.90;;;;;;4978015;28;20053;-48
2023/07/05 03:08:30;;;;;;;12.77;7.30;;;16.80;99.90;;;;;;4983718;28;20040;-49
2023/07/05 03:10:58;;;;;;;14.98;7.78;;;16.90;99.90;;;;;;4987076;28;20030;-49
2023/07/05 03:13:26;;;;;;;14.13;7.63;;;16.90;99.90;;;;;;4986820;28;20027;-50
2023/07/05 03:15:51;;;;;;;13.20;7.57;;;16.80;99.90;;;;;;4988337;28;20482;-51
2023/07/05 03:18:17;;;;;;;17.23;7.75;;;16.90;99.90;;;;;;5088458;28;20035;-52
2023/07/05 03:20:46;;;;;;;13.10;7.05;;;16.80;99.90;;;;;;5071254;28;20026;-51
2023/07/05 03:23:11;;;;;;;13.18;8.15;;;16.80;99.90;;;;;;5070982;28;20431;-51
2023/07/05 03:25:37;;;;;;;15.10;7.95;;;16.80;99.90;;;;;;5036569;28;20031;-48
2023/07/05 03:28:03;;;;;;;14.70;7.63;;;16.80;99.90;;;;;;4986577;28;20419;-49
2023/07/05 03:30:28;;;;;;;13.02;7.22;;;16.70;99.90;;;;;;4987001;28;20054;-50
2023/07/05 03:32:54;;;;;;;14.23;8.10;;;16.70;99.90;;;;;;4986602;28;20510;-51
2023/07/05 03:35:19;;;;;;;13.88;8.10;;;16.70;99.90;;;;;;4986825;28;20278;-51
2023/07/05 03:37:45;;;;;;;13.25;7.75;;;16.70;99.90;;;;;;4997142;28;20035;-51
2023/07/05 03:40:11;;;;;;;14.93;7.53;;;16.60;99.90;;;;;;5070671;28;20028;-49
2023/07/05 03:42:37;;;;;;;11.27;7.75;;;16.60;99.90;;;;;;5088906;28;20051;-48
2023/07/05 03:45:03;;;;;;;15.65;7.85;;;16.60;99.90;;;;;;5049077;28;20024;-49
2023/07/05 03:47:29;;;;;;;12.07;7.68;;;16.70;99.90;;;;;;5014641;28;20075;-49
2023/07/05 03:49:54;;;;;;;10.77;7.32;;;16.70;99.90;;;;;;4989764;28;20022;-49
2023/07/05 03:52:20;;;;;;;12.98;7.88;;;16.60;99.90;;;;;;5009802;28;20035;-51
2023/07/05 03:54:45;;;;;;;14.02;7.30;;;16.60;99.90;;;;;;5092318;28;20024;-49
2023/07/05 03:57:11;;;;;;;17.38;8.75;;;16.70;99.90;;;;;;5028016;28;20027;-49
2023/07/05 03:59:36;;;;;;;13.27;8.07;;;16.70;99.90;;;;;;4990134;28;20023;-51
2023/07/05 04:02:02;;;;;;;15.43;7.47;;;16.70;99.90;;;;;;5039005;28;20146;-50
2023/07/05 04:04:27;;;;;;;15.05;8.27;;;16.70;99.90;;;;;;5092574;28;20095;-50
2023/07/05 04:06:53;;;;;;;16.40;8.38;;;16.70;99.90;;;;;;5041069;28;20487;-51
2023/07/05 04:09:18;;;;;;;14.77;8.32;;;16.70;99.90;;;;;;4989507;28;20034;-48
2023/07/05 04:11:44;;;;;;;12.60;8.07;;;16.80;99.90;;;;;;4989074;28;20469;-49
2023/07/05 04:14:11;;;;;;;14.77;8.50;;;16.80;99.90;;;;;;5087085;28;20093;-49
2023/07/05 04:16:36;;;;;;;16.85;8.40;;;16.70;99.90;;;;;;5089733;28;20020;-51
2023/07/05 04:19:02;;;;;;;13.20;8.30;;;16.70;99.90;;;;;;4989088;28;20027;-50
2023/07/05 04:21:27;;;;;;;18.92;9.25;;;16.60;99.90;;;;;;4988820;28;20058;-51
2023/07/05 04:23:53;;;;;;;13.70;9.15;;;16.50;99.90;;;;;;5057172;28;20052;-49
2023/07/05 04:26:23;;;;;;;19.08;8.68;;;16.40;99.90;;;;;;5032014;28;20056;-51
2023/07/05 04:28:49;;;;;;;13.68;9.10;;;16.30;99.90;;;;;;4971381;28;20060;-49
2023/07/05 04:31:18;;;;;;;15.65;8.85;;;16.30;99.90;;;;;;5006390;28;20032;-51
2023/07/05 04:33:44;;;;;;;14.82;8.32;;;16.30;99.90;;;;;;5092147;28;20451;-48
2023/07/05 04:36:10;;;;;;;17.10;8.93;;;16.30;99.90;;;;;;5056874;28;20091;-49
2023/07/05 04:38:35;;;;;;;17.63;9.35;;;16.30;99.90;;;;;;4988749;28;20027;-50
2023/07/05 04:41:01;;;;;;;18.85;9.15;;;16.40;99.90;;;;;;4989233;28;20056;-51
2023/07/05 04:43:27;;;;;;;14.77;9.32;;;16.40;99.90;;;;;;4988814;28;20037;-51
2023/07/05 04:45:55;;;;;;;14.13;8.68;;;16.50;99.90;;;;;;4988745;28;20018;-50
2023/07/05 04:48:21;;;;;;;16.45;9.02;;;16.60;99.90;;;;;;4988652;28;20026;-50
2023/07/05 04:50:50;;;;;;;14.27;9.23;;;16.60;99.90;;;;;;4988931;28;20403;-49
2023/07/05 04:53:16;;;;;;;18.88;9.15;;;16.70;99.90;;;;;;5028943;28;20496;-50
2023/07/05 04:55:49;;;;;;;18.45;9.52;;;16.70;99.90;;;;;;5091020;28;20067;-51
2023/07/05 04:58:15;;;;;;;18.67;9.27;;;16.80;99.90;;;;;;5005599;28;20034;-51
2023/07/05 05:00:45;;;;;;;15.90;8.75;;;16.80;99.90;;;;;;4988753;28;20364;-51
2023/07/05 05:03:12;;;;;;;15.60;8.55;;;16.90;99.90;;;;;;4988253;28;20624;-51
2023/07/05 05:05:37;;;;;;;13.50;9.07;;;17.00;99.90;;;;;;4971446;28;20258;-50
2023/07/05 05:08:03;;;;;;;16.45;9.70;;;17.00;99.90;;;;;;4987779;28;21638;-49
2023/07/05 05:10:28;;;;;;;19.63;10.55;;;17.00;99.90;;;;;;4984318;28;20058;-49
2023/07/05 05:12:54;;;;;;;16.30;8.82;;;17.00;99.90;;;;;;5010642;28;20479;-51
2023/07/05 05:15:19;;;;;;;17.98;9.63;;;17.10;99.90;;;;;;5001197;28;20043;-48
2023/07/05 05:17:45;;;;;;;15.80;9.10;;;17.20;99.90;;;;;;5019238;28;20033;-50
2023/07/05 05:20:11;;;;;;;18.75;9.27;;;17.20;99.90;;;;;;5025039;28;20034;-51
2023/07/05 05:22:36;;;;;;;18.58;9.70;;;17.30;99.90;;;;;;5016074;28;20035;-49
2023/07/05 05:25:02;;;;;;;16.83;10.00;;;17.30;99.90;;;;;;5034253;28;20391;-49
2023/07/05 05:27:28;;;;;;;18.15;10.18;;;17.40;99.90;;;;;;5086818;28;20031;-51
2023/07/05 05:29:53;;;;;;;17.73;10.68;;;17.50;99.90;;;;;;5002906;28;20053;-49
2023/07/05 05:32:19;;;;;;;14.90;9.75;;;17.50;99.90;;;;;;4994275;28;20058;-51
2023/07/05 05:34:44;;;;;;;12.95;9.65;;;17.60;99.90;;;;;;4980213;28;20029;-51
2023/07/05 05:37:10;;;;;;;16.20;9.70;;;17.60;99.90;;;;;;5002026;28;20119;-51
2023/07/05 05:39:35;;;;;;;14.35;9.38;;;17.60;99.90;;;;;;4986336;28;20049;-51
2023/07/05 05:42:02;;;;;;;18.25;9.70;;;17.60;99.90;;;;;;4984336;28;20027;-50
2023/07/05 05:44:27;;;;;;;19.17;10.02;;;17.70;99.90;;;;;;4991182;28;20022;-48
2023/07/05 05:46:53;;;;;;;15.68;9.80;;;17.70;99.90;;;;;;4987295;28;20022;-52
2023/07/05 05:49:19;;;;;;;18.10;9.98;;;17.70;99.90;;;;;;4982989;28;20031;-51
2023/07/05 05:51:44;;;;;;;15.20;9.23;;;17.70;99.90;;;;;;4985941;28;20392;-51
2023/07/05 05:54:10;;;;;;;19.20;9.95;;;17.70;99.90;;;;;;4992185;28;20026;-48
2023/07/05 05:56:36;;;;;;;13.43;8.80;;;17.80;99.90;;;;;;4986861;28;20468;-51
2023/07/05 05:59:02;;;;;;;16.42;9.73;;;17.80;99.90;;;;;;4985211;28;20072;-50
2023/07/05 06:01:28;;;;;;;17.02;9.88;;;17.90;99.90;;;;;;4981697;28;20384;-50
2023/07/05 06:03:54;;;;;;;16.85;9.02;;;17.90;99.90;;;;;;4990008;28;20033;-52
2023/07/05 06:06:19;;;;;;;16.65;9.05;;;17.90;99.90;;;;;;4986959;28;20031;-52
2023/07/05 06:08:45;;;;;;;16.58;10.35;;;17.90;99.90;;;;;;4977956;28;20018;-52
2023/07/05 06:11:10;;;;;;;13.95;9.15;;;17.90;99.90;;;;;;4984186;28;20015;-50
2023/07/05 06:13:36;;;;;;;13.68;8.80;;;18.00;99.90;;;;;;4987486;28;20182;-50
2023/07/05 06:16:03;;;;;;;14.23;8.75;;;18.00;99.90;;;;;;4967113;28;20041;-51
2023/07/05 06:18:29;;;;;;;14.23;8.70;;;18.10;99.90;;;;;;4984296;28;20034;-50
2023/07/05 06:20:55;;;;;;;18.35;9.20;;;18.10;99.90;;;;;;4986103;28;20032;-48
2023/07/05 06:23:21;;;;;;;13.68;8.48;;;18.10;99.90;;;;;;5012231;28;20032;-52
2023/07/05 06:25:48;;;;;;;17.25;9.20;;;18.20;99.90;;;;;;5014438;28;20034;-50
2023/07/05 06:28:14;;;;;;;13.10;8.50;;;18.20;99.90;;;;;;5043612;28;20038;-50
2023/07/05 06:30:41;;;;;;;13.65;8.90;;;18.30;99.90;;;;;;5022405;28;20026;-51
2023/07/05 06:33:07;;;;;;;15.38;9.45;;;18.30;99.90;;;;;;4987064;28;20039;-48
2023/07/05 06:35:32;;;;;;;14.45;8.68;;;18.30;99.90;;;;;;4986122;28;20101;-50
2023/07/05 06:37:58;;;;;;;14.80;8.68;;;18.40;99.90;;;;;;4986009;28;20117;-50
2023/07/05 06:40:24;;;;;;;13.60;9.00;;;18.30;99.90;;;;;;4986002;28;20040;-49
2023/07/05 06:42:50;;;;;;;14.68;8.38;;;18.40;99.90;;;;;;4985085;28;20379;-48
2023/07/05 06:45:15;;;;;;;13.98;8.23;;;18.40;99.90;;;;;;4984618;28;20034;-49
2023/07/05 06:47:41;;;;;;;11.40;8.18;;;18.40;99.90;;;;;;5054789;28;20024;-49
2023/07/05 06:50:08;;;;;;;14.07;8.32;;;18.30;99.90;;;;;;5062181;28;20050;-51
2023/07/05 06:52:33;;;;;;;12.80;7.90;;;18.30;99.90;;;;;;4968366;28;20062;-49
2023/07/05 06:54:59;;;;;;;14.60;8.02;;;18.30;99.90;;;;;;4969318;28;20456;-51
2023/07/05 06:57:24;;;;;;;12.40;7.93;;;18.40;99.90;;;;;;4968864;28;20368;-49
2023/07/05 06:59:51;;;;;;;9.85;7.30;;;18.30;99.90;;;;;;4986650;28;20122;-51
2023/07/05 07:02:16;;;;;;;11.88;7.13;;;18.40;99.90;;;;;;4969391;28;20033;-51
2023/07/05 07:04:42;;;;;;;14.15;7.25;;;18.40;99.90;;;;;;4986587;28;20027;-51
2023/07/05 07:07:07;;;;;;;8.18;6.18;;;18.30;99.90;;;;;;4969197;28;20026;-51
2023/07/05 07:09:34;;;;;;;6.57;5.25;;;18.20;99.90;;;;;;4986180;28;20068;-51
2023/07/05 07:11:59;;;;;;;14.77;6.28;;;18.00;99.90;;;;;;4986549;28;20026;-51
2023/07/05 07:14:25;;;;;;;7.72;4.88;;;17.80;99.90;;;;;;4986521;28;20038;-51
2023/07/05 07:16:51;;;;;;;6.47;4.75;;;17.70;99.90;;;;;;4991251;28;20037;-50
2023/07/05 07:19:17;;;;;;;7.28;4.30;;;17.60;99.90;;;;;;5081923;28;20024;-50
2023/07/05 07:21:43;;;;;;;6.82;4.18;;;17.60;99.90;;;;;;5043923;28;20042;-51
2023/07/05 07:24:09;;;;;;;7.55;4.45;;;17.60;99.90;;;;;;5006234;28;20486;-53
2023/07/05 07:26:35;;;;;;;6.32;3.95;;;17.60;99.90;;;;;;4974115;28;20533;-53
2023/07/05 07:29:01;;;;;;;8.93;4.38;;;17.60;99.90;;;;;;4994076;28;20054;-52
2023/07/05 07:31:29;;;;;;;8.20;3.50;;;17.60;99.90;;;;;;5054715;28;20021;-52
2023/07/05 07:33:56;;;;;;;4.82;3.22;;;17.60;99.90;;;;;;5000778;28;20032;-52
2023/07/05 07:36:24;;;;;;;5.80;3.10;;;17.60;99.90;;;;;;4989976;28;20099;-52
2023/07/05 07:38:51;;;;;;;7.15;3.47;;;17.50;99.90;;;;;;4989617;28;20022;-51
2023/07/05 07:41:22;;;;;;;4.38;3.53;;;17.50;99.90;;;;;;5034327;28;20467;-50
2023/07/05 07:43:52;;;;;;;5.18;3.42;;;17.40;99.90;;;;;;5067672;28;20034;-52
2023/07/05 07:46:21;;;;;;;4.68;3.28;;;17.40;99.90;;;;;;4997158;28;20511;-51
2023/07/05 07:48:49;;;;;;;5.55;3.40;;;17.40;99.90;;;;;;5001408;28;20045;-52
2023/07/05 07:51:17;;;;;;;4.93;3.15;;;17.50;99.90;;;;;;5019859;28;20038;-50
2023/07/05 07:53:43;;;;;;;8.35;3.10;;;17.50;99.90;;;;;;5037933;28;20749;-52
2023/07/05 07:56:11;;;;;;;4.70;3.30;;;17.50;99.90;;;;;;5022973;28;20062;-48
2023/07/05 07:58:36;;;;;;;6.32;3.53;;;17.50;99.90;;;;;;4988530;28;20019;-51
2023/07/05 08:01:13;;;;;;;5.57;3.00;;;17.60;99.90;;;;;;4989453;28;20029;-50
2023/07/05 08:03:38;;;;;;;5.28;2.90;;;17.60;99.90;;;;;;5014520;28;20027;-52
2023/07/05 08:06:06;;;;;;;4.85;2.53;;;17.60;99.90;;;;;;4975221;28;20033;-52
2023/07/05 08:08:32;;;;;;;4.30;2.70;;;17.70;99.90;;;;;;4988744;28;20030;-53
2023/07/05 08:10:58;;;;;;;4.55;2.53;;;17.70;99.90;;;;;;5012225;28;20031;-50
2023/07/05 08:13:23;;;;;;;5.18;3.00;;;17.80;99.90;;;;;;4995596;28;20035;-52
2023/07/05 08:15:49;;;;;;;4.38;2.83;;;18.00;99.90;;;;;;5006043;28;20024;-52
2023/07/05 08:18:14;;;;;;;7.78;2.80;;;18.20;99.90;;;;;;4989125;28;20049;-52
2023/07/05 08:20:39;;;;;;;4.60;2.65;;;18.40;99.90;;;;;;5012197;28;20023;-52
2023/07/05 08:23:06;;;;;;;3.55;2.53;;;18.80;99.90;;;;;;5091394;28;20035;-53
2023/07/05 08:25:34;;;;;;;6.68;2.63;;;19.20;99.90;;;;;;5034963;28;20105;-52
2023/07/05 08:28:00;;;;;;;3.65;2.53;;;19.50;99.90;;;;;;5046169;28;20500;-53
2023/07/05 08:30:26;;;;;;;3.58;2.35;;;20.10;99.90;;;;;;4971755;28;20487;-52
2023/07/05 08:32:53;;;;;;;6.55;2.95;;;20.70;99.90;;;;;;4988483;28;20065;-52
2023/07/05 08:35:18;;;;;;;3.53;2.75;;;20.90;99.90;;;;;;4989335;28;20054;-52
2023/07/05 08:37:48;;;;;;;7.25;2.65;;;21.00;99.90;;;;;;4999827;28;20068;-53
2023/07/05 08:40:18;;;;;;;3.50;2.72;;;21.20;99.90;;;;;;5022258;28;20076;-52
2023/07/05 08:42:58;;;;;;;3.63;2.83;;;21.50;99.90;;;;;;4988546;28;20023;-52
2023/07/05 08:45:42;;;;;;;3.85;2.80;;;21.90;99.90;;;;;;4989096;28;20524;-52
2023/07/05 08:48:11;;;;;;;3.22;2.70;;;22.60;99.90;;;;;;4987602;28;20107;-52
2023/07/05 08:50:41;;;;;;;4.10;2.63;;;23.20;99.90;;;;;;5055622;28;20103;-53
2023/07/05 08:53:18;;;;;;;4.28;2.65;;;23.50;99.90;;;;;;5026722;28;20026;-54
2023/07/05 08:56:13;;;;;;;4.40;2.97;;;24.10;99.10;;;;;;4988898;28;20026;-53
2023/07/05 08:58:41;;;;;;;4.45;2.90;;;24.10;96.50;;;;;;5013522;28;20133;-53
2023/07/05 09:01:22;;;;;;;5.35;3.10;;;24.20;96.60;;;;;;5078416;28;20028;-53
2023/07/05 09:03:48;;;;;;;5.13;3.22;;;24.40;97.00;;;;;;5059877;28;20030;-53
2023/07/05 09:06:22;;;;;;;4.63;3.20;;;23.80;94.80;;;;;;5058586;28;20097;-53
2023/07/05 09:09:06;;;;;;;3.83;2.88;;;23.20;94.20;;;;;;5052276;28;20024;-52
2023/07/05 09:11:50;;;;;;;4.78;3.15;;;22.50;95.70;;;;;;5039256;28;20030;-53
2023/07/05 09:14:40;;;;;;;5.20;3.10;;;22.20;95.80;;;;;;5027676;28;20030;-53
2023/07/05 09:17:31;;;;;;;4.73;3.00;;;21.60;96.90;;;;;;5007654;28;20010;-51
2023/07/05 09:20:29;;;;;;;6.88;3.72;;;21.10;98.40;;;;;;5019725;28;20024;-53
2023/07/05 09:22:57;;;;;;;5.50;3.65;;;22.50;97.30;;;;;;4997437;28;20447;-53
2023/07/05 09:25:25;;;;;;;4.95;3.00;;;23.50;95.80;;;;;;5017892;28;20024;-53
2023/07/05 09:28:05;;;;;;;3.25;2.70;;;24.80;93.30;;;;;;5026929;28;20018;-51
2023/07/05 09:30:31;;;;;;;4.47;3.30;;;25.70;92.10;;;;;;5018716;28;20075;-51
2023/07/05 09:33:07;;;;;;;3.67;2.80;;;26.00;89.90;;;;;;5039791;28;20607;-52
2023/07/05 09:35:35;;;;;;;3.47;3.15;;;26.30;85.20;;;;;;5072498;28;20378;-51
2023/07/05 09:38:01;;;;;;;3.72;2.67;;;27.20;84.00;;;;;;5015186;28;20041;-53
2023/07/05 09:40:31;;;;;;;5.57;2.83;;;28.10;83.80;;;;;;5004374;28;20024;-52
2023/07/05 09:43:01;;;;;;;3.00;2.53;;;27.90;79.80;;;;;;5027528;28;20030;-52
2023/07/05 09:45:27;;;;;;;;;;;27.20;80.30;;;;;;5072008;28;20027;-52
2023/07/05 09:48:03;;;;;;;3.22;2.70;;;27.70;79.60;;;;;;5018110;28;19904;-52
2023/07/05 09:50:29;;;;;;;3.00;2.65;;;27.80;77.30;;;;;;5039319;28;20032;-52
2023/07/05 09:53:19;;;;;;;5.00;2.25;;;27.80;76.00;;;;;;5053423;28;20032;-52
2023/07/05 09:56:04;;;;;;;;;;;28.90;76.60;;;;;;5055356;28;20028;-52
2023/07/05 09:58:31;;;;;;;2.90;2.33;;;29.20;72.90;;;;;;5080786;28;20357;-52
2023/07/05 10:01:02;;;;;;;5.47;2.67;;;28.80;69.80;;;;;;5078848;28;20032;-52
2023/07/05 10:03:34;;;;;;;4.80;2.65;;;28.80;68.30;;;;;;5031374;28;20028;-52
2023/07/05 10:06:07;;;;;;;2.70;2.22;;;29.10;65.10;;;;;;5077392;28;20067;-52
2023/07/05 10:08:47;;;;;;;3.58;2.75;;;27.90;63.00;;;;;;5073754;28;20020;-52
2023/07/05 10:11:27;;;;;;;6.32;2.22;;;28.40;62.60;;;;;;5049054;28;20028;-52
2023/07/05 10:14:10;;;;;;;7.38;2.15;;;28.20;60.20;;;;;;5088432;28;20458;-52
2023/07/05 10:17:11;;;;;;;5.38;2.30;;;28.00;60.60;;;;;;5070112;28;20079;-52
2023/07/05 10:19:47;;;;;;;3.38;2.63;;;28.00;60.00;;;;;;5051698;28;20024;-52
2023/07/05 10:22:28;;;;;;;3.10;2.45;;;28.30;61.80;;;;;;5046434;28;20398;-52
2023/07/05 10:25:05;;;;;;;6.97;2.42;;;28.30;59.00;;;;;;5088630;28;20032;-52
2023/07/05 10:27:34;;;;;;;4.63;2.30;;;29.00;60.00;;;;;;5053087;28;20024;-52
2023/07/05 10:30:14;;;;;;;3.65;2.38;;;27.90;59.10;;;;;;5050087;28;20027;-52
2023/07/05 10:32:41;;;;;;;3.47;2.28;;;27.90;60.00;;;;;;5026581;28;20020;-52
2023/07/05 10:35:27;;;;;;;3.15;2.15;;;26.90;61.00;;;;;;5035629;28;20023;-51
2023/07/05 10:37:53;;;;;;;5.15;2.35;;;26.00;61.80;;;;;;5084298;28;20086;-50
2023/07/05 10:40:21;;;;;;;6.43;2.47;;;25.80;62.50;;;;;;5088150;28;20535;-50
2023/07/05 10:42:52;;;;;;;4.00;2.75;;;26.20;64.20;;;;;;5033630;28;20024;-52
2023/07/05 10:45:19;;;;;;;5.85;2.65;;;27.10;61.80;;;;;;5037324;28;20362;-52
2023/07/05 10:47:46;;;;;;;4.22;2.20;;;28.00;61.40;;;;;;4993064;28;20031;-52
2023/07/05 10:50:15;;;;;;;3.75;2.53;;;28.90;59.00;;;;;;5036656;28;20035;-52
2023/07/05 10:52:49;;;;;;;3.50;2.58;;;28.90;58.00;;;;;;5019463;28;20038;-52
2023/07/05 10:55:19;;;;;;;5.35;2.70;;;28.60;59.50;;;;;;5042592;28;20028;-51
2023/07/05 10:58:13;;;;;;;2.75;2.38;;;28.80;59.60;;;;;;5056031;28;20246;-52
2023/07/05 11:00:43;;;;;;;7.57;2.47;;;28.40;57.40;;;;;;5036841;28;20034;-51
2023/07/05 11:03:14;;;;;;;5.68;2.28;;;27.60;58.90;;;;;;4998873;28;20155;-50
2023/07/05 11:05:51;;;;;;;4.15;1.92;;;28.50;59.60;;;;;;5005332;28;20060;-52
2023/07/05 11:08:34;;;;;;;3.25;2.00;;;28.50;57.20;;;;;;5037520;28;20030;-52
2023/07/05 11:11:18;;;;;;;5.97;2.25;;;28.00;57.70;;;;;;5000991;28;20482;-51
2023/07/05 11:13:46;;;;;;;3.33;1.88;;;26.80;58.60;;;;;;5035862;28;20026;-51
2023/07/05 11:16:21;;;;;;;2.25;1.88;;;27.40;59.70;;;;;;4996736;28;20414;-51
2023/07/05 11:18:47;;;;;;;2.38;1.98;;;27.80;57.50;;;;;;5024842;28;20022;-51
2023/07/05 11:21:36;;;;;;;2.67;1.90;;;28.30;57.20;;;;;;5024808;28;20472;-53
2023/07/05 11:24:04;;;;;;;3.28;2.08;;;28.70;55.70;;;;;;5026895;28;20523;-53
2023/07/05 11:26:39;;;;;;;5.88;1.70;;;29.20;56.90;;;;;;4994136;28;20065;-53
2023/07/05 11:29:27;;;;;;;7.05;1.95;;;28.60;55.80;;;;;;4986778;28;20483;-53
2023/07/05 11:31:53;;;;;;;6.13;1.90;;;27.50;57.50;;;;;;4992940;28;20026;-52
2023/07/05 11:34:21;;;;;;;2.70;1.90;;;28.00;57.90;;;;;;4976232;28;20340;-51
2023/07/05 11:36:51;;;;;;;3.05;1.73;;;28.90;57.10;;;;;;4987094;28;20449;-53
2023/07/05 11:39:32;;;;;;;;;;;28.90;56.00;;;;;;4986836;28;20066;-52
2023/07/05 11:42:19;;;;;;;4.03;1.83;;;28.60;57.00;;;;;;5000246;28;20417;-52
2023/07/05 11:44:47;;;;;;;3.88;1.70;;;27.40;57.40;;;;;;4987391;28;20022;-52
2023/07/05 11:47:24;;;;;;;1.75;1.50;;;26.70;58.10;;;;;;4994224;28;20464;-51
2023/07/05 11:50:07;;;;;;;3.85;1.88;;;26.30;61.00;;;;;;4994140;28;20491;-52
2023/07/05 11:52:43;;;;;;;2.45;1.80;;;27.20;60.70;;;;;;4993175;28;20030;-51
2023/07/05 11:55:11;;;;;;;3.78;1.73;;;26.50;59.60;;;;;;4991913;28;20034;-51
2023/07/05 11:57:43;;;;;;;3.00;1.77;;;25.80;59.90;;;;;;4996056;28;20383;-52
2023/07/05 12:00:27;;;;;;;4.15;1.50;;;25.30;60.20;;;;;;4994079;28;20072;-52
2023/07/05 12:03:00;;;;;;;5.78;1.80;;;25.30;63.10;;;;;;4991059;28;20099;-52
2023/07/05 12:05:29;;;;;;;2.13;1.42;;;25.70;61.20;;;;;;4990534;28;20168;-51
2023/07/05 12:08:10;;;;;;;3.80;2.03;;;25.70;60.00;;;;;;4974826;28;20022;-51
2023/07/05 12:10:36;;;;;;;3.22;1.50;;;25.70;61.40;;;;;;4976396;28;20161;-52
2023/07/05 12:13:04;;;;;;;1.50;1.40;;;25.90;60.50;;;;;;4994106;28;20032;-51
2023/07/05 12:15:33;;;;;;;2.80;1.50;;;26.10;60.00;;;;;;4991335;28;20333;-52
2023/07/05 12:18:02;;;;;;;2.72;1.65;;;25.70;60.90;;;;;;4992063;28;20241;-52
2023/07/05 12:20:41;;;;;;;4.43;1.98;;;24.80;61.10;;;;;;4990090;28;20026;-51
2023/07/05 12:23:13;;;;;;;4.10;1.88;;;24.30;61.70;;;;;;4993156;28;20034;-51
2023/07/05 12:25:40;;;;;;;2.63;1.50;;;23.90;64.70;;;;;;4995363;28;20049;-51
2023/07/05 12:28:17;;;;;;;2.38;1.58;;;23.90;64.80;;;;;;4982621;28;20027;-51
2023/07/05 12:30:44;;;;;;;3.35;1.60;;;24.50;63.40;;;;;;4988370;28;20498;-51
2023/07/05 12:33:50;;;;;;;4.85;1.38;;;24.20;62.80;;;;;;4991907;28;20026;-51
2023/07/05 12:36:17;;;;;;;7.32;1.60;;;24.30;62.70;;;;;;5004465;28;20030;-50
2023/07/05 12:38:48;;;;;;;4.80;1.67;;;23.80;63.40;;;;;;4991086;28;20054;-51
2023/07/05 12:41:22;;;;;;;2.90;1.45;;;23.60;66.10;;;;;;4998229;28;20041;-51
2023/07/05 12:43:57;;;;;;;4.25;1.55;;;23.80;63.80;;;;;;4995482;28;20445;-51
2023/07/05 12:46:24;;;;;;;6.97;1.40;;;23.50;64.60;;;;;;5010906;28;20028;-52
2023/07/05 12:48:51;;;;;;;5.78;1.60;;;23.30;64.00;;;;;;5038946;28;20504;-51
2023/07/05 12:51:21;;;;;;;3.97;1.60;;;22.90;67.50;;;;;;5090435;28;20032;-51
2023/07/05 12:53:58;;;;;;;4.57;1.20;;;23.60;65.20;;;;;;5090243;28;20130;-51
2023/07/05 12:56:33;;;;;;;2.60;1.30;;;23.60;65.00;;;;;;5014357;28;20123;-51